CMA CGM Musca — 2CAC8 — position and weather

sailwx.info

Track history (hours):
 
Tides and Currents Weather Stations Pressure Air Temp Water Temp Dewpoint Dewpoint Depression Visibility Wind Speed Wind Dir Waves Ship Positions

CMA CGM Musca

Last reported at 2014-Sep-30 05:32 UTC. Time now 2014-Sep-30 18:04 UTC.
Position N 01°16' E 104°08'.

Length 347 m; draft 13.7 m.

Type: Ship (hazmat cat A). MMSI: 235070914.

Date/timePositionNaut miles runAvg speedWind from/ knotsBaromVisibWave heightAir tempDewpointWater temp
2014-Sep-30 05:32N 01°16' E 104°08'1414.0
2014-Sep-30 04:33N 01°13' E 103°55'7 7.3
2014-Sep-30 03:34N 01°13' E 103°48'4 3.9
2014-Sep-30 02:32N 01°17' E 103°45'0 0.1
2014-Sep-30 01:32N 01°17' E 103°45'0 0.0
2014-Sep-30 00:28N 01°17' E 103°45'0 0.0
2014-Sep-29 23:32N 01°17' E 103°45'0 0.0
2014-Sep-29 22:31N 01°17' E 103°45'0 0.0
2014-Sep-29 21:31N 01°17' E 103°45'0 0.0
2014-Sep-29 20:31N 01°17' E 103°45'0 0.0
2014-Sep-29 19:33N 01°17' E 103°45'0 0.0
2014-Sep-29 18:33N 01°17' E 103°45'0 0.0
2014-Sep-29 17:32N 01°17' E 103°45'0 0.0
2014-Sep-29 16:31N 01°17' E 103°45'0 0.0
2014-Sep-29 15:33N 01°17' E 103°45'0 0.0
2014-Sep-29 14:33N 01°17' E 103°45'0 0.0
2014-Sep-29 13:31N 01°17' E 103°45'0 0.0
2014-Sep-29 12:31N 01°17' E 103°45'0 0.0
2014-Sep-29 11:33N 01°17' E 103°45'2 1.5
2014-Sep-29 10:33N 01°16' E 103°46'1110.5
2014-Sep-29 09:33N 01°13' E 103°36'6 6.0
2014-Sep-29 08:33N 01°10' E 103°31'5 4.5
2014-Sep-29 07:33N 01°11' E 103°26'  
Track history (hours):
 
Tides and Currents Weather Stations Pressure Air Temp Water Temp Dewpoint Dewpoint Depression Visibility Wind Speed Wind Dir Waves Ship Positions

CMA CGM Musca

Last reported at 2014-Sep-30 05:32 UTC. Time now 2014-Sep-30 18:04 UTC.
Position N 01°16' E 104°08'.

Length 347 m; draft 13.7 m.

Type: Ship (hazmat cat A). MMSI: 235070914.

Date/timePositionNaut miles runAvg speedWind from/ knotsBaromVisibWave heightAir tempDewpointWater temp
2014-Sep-30 05:32N 01°16' E 104°08'1414.0
2014-Sep-30 04:33N 01°13' E 103°55'7 7.3
2014-Sep-30 03:34N 01°13' E 103°48'4 3.9
2014-Sep-30 02:32N 01°17' E 103°45'0 0.1
2014-Sep-30 01:32N 01°17' E 103°45'0 0.0
2014-Sep-30 00:28N 01°17' E 103°45'0 0.0
2014-Sep-29 23:32N 01°17' E 103°45'0 0.0
2014-Sep-29 22:31N 01°17' E 103°45'0 0.0
2014-Sep-29 21:31N 01°17' E 103°45'0 0.0
2014-Sep-29 20:31N 01°17' E 103°45'0 0.0
2014-Sep-29 19:33N 01°17' E 103°45'0 0.0
2014-Sep-29 18:33N 01°17' E 103°45'0 0.0
2014-Sep-29 17:32N 01°17' E 103°45'0 0.0
2014-Sep-29 16:31N 01°17' E 103°45'0 0.0
2014-Sep-29 15:33N 01°17' E 103°45'0 0.0
2014-Sep-29 14:33N 01°17' E 103°45'0 0.0
2014-Sep-29 13:31N 01°17' E 103°45'0 0.0
2014-Sep-29 12:31N 01°17' E 103°45'0 0.0
2014-Sep-29 11:33N 01°17' E 103°45'2 1.5
2014-Sep-29 10:33N 01°16' E 103°46'1110.5
2014-Sep-29 09:33N 01°13' E 103°36'6 6.0
2014-Sep-29 08:33N 01°10' E 103°31'5 4.5
2014-Sep-29 07:33N 01°11' E 103°26'  

Dump ship's entire track history